sensor_id;sensor_type;location;lat;lon;timestamp;pressure;altitude;pressure_sealevel;temperature;humidity
72370;BME280;60343;-32.030;115.880;2023-03-18T00:00:32;102187.44;;;22.45;47.66
72370;BME280;60343;-32.030;115.880;2023-03-18T00:03:07;102184.84;;;22.63;46.66
72370;BME280;60343;-32.030;115.880;2023-03-18T00:05:42;102185.06;;;22.55;46.43
72370;BME280;60343;-32.030;115.880;2023-03-18T00:08:17;102182.72;;;22.72;46.09
72370;BME280;60343;-32.030;115.880;2023-03-18T00:10:57;102179.38;;;22.63;46.01
72370;BME280;60343;-32.030;115.880;2023-03-18T00:13:32;102187.09;;;23.04;45.96
72370;BME280;60343;-32.030;115.880;2023-03-18T00:16:09;102191.31;;;23.06;44.35
72370;BME280;60343;-32.030;115.880;2023-03-18T00:18:43;102185.06;;;23.24;44.85
72370;BME280;60343;-32.030;115.880;2023-03-18T00:21:19;102186.03;;;23.36;43.78
72370;BME280;60343;-32.030;115.880;2023-03-18T00:23:53;102189.81;;;23.60;43.25
72370;BME280;60343;-32.030;115.880;2023-03-18T00:26:36;102181.78;;;23.65;43.87
72370;BME280;60343;-32.030;115.880;2023-03-18T00:29:11;102180.25;;;23.69;43.17
72370;BME280;60343;-32.030;115.880;2023-03-18T00:31:46;102183.88;;;23.88;42.66
72370;BME280;60343;-32.030;115.880;2023-03-18T00:34:20;102176.13;;;24.03;42.88
72370;BME280;60343;-32.030;115.880;2023-03-18T00:36:55;102184.56;;;24.38;41.64
72370;BME280;60343;-32.030;115.880;2023-03-18T00:39:30;102187.63;;;24.60;41.66
72370;BME280;60343;-32.030;115.880;2023-03-18T00:42:10;102185.06;;;24.95;41.53
72370;BME280;60343;-32.030;115.880;2023-03-18T00:44:44;102182.97;;;25.32;40.14
72370;BME280;60343;-32.030;115.880;2023-03-18T00:47:19;102193.59;;;25.51;39.61
72370;BME280;60343;-32.030;115.880;2023-03-18T00:49:53;102187.88;;;25.30;39.22
72370;BME280;60343;-32.030;115.880;2023-03-18T00:52:28;102181.06;;;25.20;39.16
72370;BME280;60343;-32.030;115.880;2023-03-18T00:55:03;102185.50;;;25.33;39.15
72370;BME280;60343;-32.030;115.880;2023-03-18T00:57:44;102184.50;;;25.16;39.70
72370;BME280;60343;-32.030;115.880;2023-03-18T01:00:19;102188.81;;;25.24;39.77
72370;BME280;60343;-32.030;115.880;2023-03-18T01:02:53;102188.81;;;25.24;40.07
72370;BME280;60343;-32.030;115.880;2023-03-18T01:05:28;102183.94;;;25.37;39.48
72370;BME280;60343;-32.030;115.880;2023-03-18T01:08:03;102183.69;;;25.50;38.63
72370;BME280;60343;-32.030;115.880;2023-03-18T01:10:37;102181.97;;;25.68;38.29
72370;BME280;60343;-32.030;115.880;2023-03-18T01:13:17;102184.31;;;25.76;38.89
72370;BME280;60343;-32.030;115.880;2023-03-18T01:15:55;102192.91;;;26.02;38.02
72370;BME280;60343;-32.030;115.880;2023-03-18T01:18:32;102188.81;;;26.28;37.95
72370;BME280;60343;-32.030;115.880;2023-03-18T01:21:07;102198.94;;;26.39;37.33
72370;BME280;60343;-32.030;115.880;2023-03-18T01:23:43;102197.16;;;26.62;37.69
72370;BME280;60343;-32.030;115.880;2023-03-18T01:26:18;102197.34;;;26.55;36.55
72370;BME280;60343;-32.030;115.880;2023-03-18T01:28:59;102203.34;;;26.69;38.06
72370;BME280;60343;-32.030;115.880;2023-03-18T01:31:34;102210.44;;;26.65;36.44
72370;BME280;60343;-32.030;115.880;2023-03-18T01:34:08;102197.25;;;26.67;36.33
72370;BME280;60343;-32.030;115.880;2023-03-18T01:36:43;102203.13;;;26.70;37.23
72370;BME280;60343;-32.030;115.880;2023-03-18T01:39:17;102199.63;;;26.75;35.69
72370;BME280;60343;-32.030;115.880;2023-03-18T01:41:52;102196.88;;;26.75;36.03
72370;BME280;60343;-32.030;115.880;2023-03-18T01:44:32;102200.31;;;26.54;36.71
72370;BME280;60343;-32.030;115.880;2023-03-18T01:47:07;102194.19;;;26.63;36.86
72370;BME280;60343;-32.030;115.880;2023-03-18T01:49:47;102197.06;;;26.85;36.61
72370;BME280;60343;-32.030;115.880;2023-03-18T01:52:24;102199.91;;;27.18;36.46
72370;BME280;60343;-32.030;115.880;2023-03-18T01:55:02;102192.56;;;27.24;35.03
72370;BME280;60343;-32.030;115.880;2023-03-18T01:57:37;102187.81;;;27.53;36.11
72370;BME280;60343;-32.030;115.880;2023-03-18T02:00:18;102183.94;;;27.87;34.63
72370;BME280;60343;-32.030;115.880;2023-03-18T02:02:54;102187.28;;;27.72;34.42
72370;BME280;60343;-32.030;115.880;2023-03-18T02:05:28;102186.06;;;28.02;33.94
72370;BME280;60343;-32.030;115.880;2023-03-18T02:08:03;102186.03;;;28.19;33.80
72370;BME280;60343;-32.030;115.880;2023-03-18T02:10:38;102186.81;;;28.36;33.67
72370;BME280;60343;-32.030;115.880;2023-03-18T02:13:13;102180.59;;;28.45;33.82
72370;BME280;60343;-32.030;115.880;2023-03-18T02:15:56;102179.31;;;28.58;33.41
72370;BME280;60343;-32.030;115.880;2023-03-18T02:18:34;102165.75;;;28.73;33.19
72370;BME280;60343;-32.030;115.880;2023-03-18T02:21:39;102169.28;;;28.95;33.00
72370;BME280;60343;-32.030;115.880;2023-03-18T02:24:26;102171.75;;;28.70;33.17
72370;BME280;60343;-32.030;115.880;2023-03-18T02:27:19;102164.34;;;28.49;33.70
72370;BME280;60343;-32.030;115.880;2023-03-18T02:29:55;102161.34;;;28.50;33.28
72370;BME280;60343;-32.030;115.880;2023-03-18T02:32:31;102162.09;;;28.94;32.93
72370;BME280;60343;-32.030;115.880;2023-03-18T02:35:08;102166.38;;;29.44;33.12
72370;BME280;60343;-32.030;115.880;2023-03-18T02:37:44;102147.59;;;29.88;31.61
72370;BME280;60343;-32.030;115.880;2023-03-18T02:40:20;102146.38;;;29.69;31.09
72370;BME280;60343;-32.030;115.880;2023-03-18T02:43:16;102142.59;;;29.85;31.14
72370;BME280;60343;-32.030;115.880;2023-03-18T02:46:03;102158.59;;;29.36;31.56
72370;BME280;60343;-32.030;115.880;2023-03-18T02:48:41;102143.31;;;29.28;31.68
72370;BME280;60343;-32.030;115.880;2023-03-18T02:51:17;102144.38;;;29.54;30.90
72370;BME280;60343;-32.030;115.880;2023-03-18T02:53:53;102141.38;;;29.61;30.82
72370;BME280;60343;-32.030;115.880;2023-03-18T02:56:28;102139.72;;;29.28;31.11
72370;BME280;60343;-32.030;115.880;2023-03-18T02:59:09;102133.75;;;29.31;30.87
72370;BME280;60343;-32.030;115.880;2023-03-18T03:01:45;102132.22;;;29.50;31.18
72370;BME280;60343;-32.030;115.880;2023-03-18T03:04:22;102125.72;;;29.76;31.16
72370;BME280;60343;-32.030;115.880;2023-03-18T03:06:57;102123.41;;;30.10;30.19
72370;BME280;60343;-32.030;115.880;2023-03-18T03:09:31;102121.28;;;30.27;31.26
72370;BME280;60343;-32.030;115.880;2023-03-18T03:12:06;102107.75;;;30.36;30.05
72370;BME280;60343;-32.030;115.880;2023-03-18T03:14:46;102099.72;;;30.35;30.33
72370;BME280;60343;-32.030;115.880;2023-03-18T03:17:20;102113.22;;;30.16;29.50
72370;BME280;60343;-32.030;115.880;2023-03-18T03:19:55;102103.84;;;30.17;30.30
72370;BME280;60343;-32.030;115.880;2023-03-18T03:22:32;102104.34;;;30.14;29.37
72370;BME280;60343;-32.030;115.880;2023-03-18T03:25:08;102102.16;;;30.16;29.57
72370;BME280;60343;-32.030;115.880;2023-03-18T03:27:43;102090.59;;;30.34;29.86
72370;BME280;60343;-32.030;115.880;2023-03-18T03:30:23;102083.78;;;29.84;30.32
72370;BME280;60343;-32.030;115.880;2023-03-18T03:32:58;102084.31;;;28.92;30.26
72370;BME280;60343;-32.030;115.880;2023-03-18T03:35:32;102080.03;;;27.78;33.09
72370;BME280;60343;-32.030;115.880;2023-03-18T03:38:08;102077.16;;;27.67;33.19
72370;BME280;60343;-32.030;115.880;2023-03-18T03:40:43;102070.03;;;27.71;33.54
72370;BME280;60343;-32.030;115.880;2023-03-18T03:43:17;102069.03;;;27.99;32.93
72370;BME280;60343;-32.030;115.880;2023-03-18T03:45:58;102069.84;;;28.00;32.77
72370;BME280;60343;-32.030;115.880;2023-03-18T03:48:33;102054.59;;;27.92;33.74
72370;BME280;60343;-32.030;115.880;2023-03-18T03:51:08;102048.38;;;28.24;32.89
72370;BME280;60343;-32.030;115.880;2023-03-18T03:53:42;102050.63;;;28.27;32.56
72370;BME280;60343;-32.030;115.880;2023-03-18T03:56:17;102045.22;;;27.88;33.58
72370;BME280;60343;-32.030;115.880;2023-03-18T03:58:51;102043.66;;;28.19;32.37
72370;BME280;60343;-32.030;115.880;2023-03-18T04:01:32;102033.94;;;28.38;32.88
72370;BME280;60343;-32.030;115.880;2023-03-18T04:04:06;102017.53;;;28.85;32.20
72370;BME280;60343;-32.030;115.880;2023-03-18T04:06:42;102025.22;;;28.20;32.52
72370;BME280;60343;-32.030;115.880;2023-03-18T04:09:16;102017.16;;;28.40;31.90
72370;BME280;60343;-32.030;115.880;2023-03-18T04:11:51;102016.78;;;28.63;32.08
72370;BME280;60343;-32.030;115.880;2023-03-18T04:14:25;102003.28;;;28.62;32.14
72370;BME280;60343;-32.030;115.880;2023-03-18T04:17:06;101997.59;;;29.15;30.61
72370;BME280;60343;-32.030;115.880;2023-03-18T04:19:40;101992.16;;;29.25;31.52
72370;BME280;60343;-32.030;115.880;2023-03-18T04:22:15;101995.47;;;29.27;30.12
72370;BME280;60343;-32.030;115.880;2023-03-18T04:24:50;101987.78;;;29.34;31.58
72370;BME280;60343;-32.030;115.880;2023-03-18T04:27:25;101986.50;;;29.47;31.22
72370;BME280;60343;-32.030;115.880;2023-03-18T04:30:00;101988.44;;;29.05;30.44
72370;BME280;60343;-32.030;115.880;2023-03-18T04:32:40;101983.53;;;28.43;31.69
72370;BME280;60343;-32.030;115.880;2023-03-18T04:35:15;101986.13;;;28.54;31.42
72370;BME280;60343;-32.030;115.880;2023-03-18T04:37:50;101978.22;;;28.31;31.16
72370;BME280;60343;-32.030;115.880;2023-03-18T04:40:24;101977.66;;;27.76;32.26
72370;BME280;60343;-32.030;115.880;2023-03-18T04:42:59;101975.28;;;27.62;33.26
72370;BME280;60343;-32.030;115.880;2023-03-18T04:45:36;101964.25;;;27.84;32.84
72370;BME280;60343;-32.030;115.880;2023-03-18T04:48:16;101958.28;;;28.19;31.47
72370;BME280;60343;-32.030;115.880;2023-03-18T04:50:51;101950.47;;;28.75;30.73
72370;BME280;60343;-32.030;115.880;2023-03-18T04:53:26;101953.47;;;29.15;31.19
72370;BME280;60343;-32.030;115.880;2023-03-18T04:56:00;101956.81;;;29.90;30.56
72370;BME280;60343;-32.030;115.880;2023-03-18T04:58:35;101942.50;;;30.18;28.43
72370;BME280;60343;-32.030;115.880;2023-03-18T05:01:09;101952.88;;;29.65;30.25
72370;BME280;60343;-32.030;115.880;2023-03-18T05:03:50;101933.25;;;29.57;29.24
72370;BME280;60343;-32.030;115.880;2023-03-18T05:06:26;101929.13;;;29.74;30.50
72370;BME280;60343;-32.030;115.880;2023-03-18T05:09:01;101929.78;;;30.02;29.31
72370;BME280;60343;-32.030;115.880;2023-03-18T05:11:36;101931.41;;;30.23;29.38
72370;BME280;60343;-32.030;115.880;2023-03-18T05:14:10;101930.31;;;30.09;29.23
72370;BME280;60343;-32.030;115.880;2023-03-18T05:16:45;101920.09;;;30.40;27.30
72370;BME280;60343;-32.030;115.880;2023-03-18T05:19:25;101915.97;;;30.37;28.46
72370;BME280;60343;-32.030;115.880;2023-03-18T05:22:00;101916.22;;;30.61;27.72
72370;BME280;60343;-32.030;115.880;2023-03-18T05:24:35;101911.47;;;30.82;27.57
72370;BME280;60343;-32.030;115.880;2023-03-18T05:27:10;101920.56;;;31.07;27.98
72370;BME280;60343;-32.030;115.880;2023-03-18T05:29:45;101908.09;;;31.00;27.54
72370;BME280;60343;-32.030;115.880;2023-03-18T05:32:20;101906.16;;;31.10;27.34
72370;BME280;60343;-32.030;115.880;2023-03-18T05:35:00;101898.47;;;31.51;26.56
72370;BME280;60343;-32.030;115.880;2023-03-18T05:37:35;101899.06;;;31.48;30.35
72370;BME280;60343;-32.030;115.880;2023-03-18T05:40:10;101901.25;;;31.51;29.99
72370;BME280;60343;-32.030;115.880;2023-03-18T05:42:45;101900.00;;;31.24;30.15
72370;BME280;60343;-32.030;115.880;2023-03-18T05:45:19;101893.56;;;31.43;29.96
72370;BME280;60343;-32.030;115.880;2023-03-18T05:47:54;101895.81;;;31.31;29.66
72370;BME280;60343;-32.030;115.880;2023-03-18T05:50:36;101886.28;;;31.58;29.71
72370;BME280;60343;-32.030;115.880;2023-03-18T05:53:11;101896.19;;;31.09;30.18
72370;BME280;60343;-32.030;115.880;2023-03-18T05:55:46;101894.66;;;30.68;31.14
72370;BME280;60343;-32.030;115.880;2023-03-18T05:58:21;101879.22;;;30.52;31.63
72370;BME280;60343;-32.030;115.880;2023-03-18T06:00:57;101873.38;;;30.33;32.09
72370;BME280;60343;-32.030;115.880;2023-03-18T06:03:32;101868.38;;;30.65;31.04
72370;BME280;60343;-32.030;115.880;2023-03-18T06:06:13;101865.09;;;30.28;30.88
72370;BME280;60343;-32.030;115.880;2023-03-18T06:08:47;101860.41;;;30.28;31.01
72370;BME280;60343;-32.030;115.880;2023-03-18T06:11:23;101870.06;;;30.56;31.13
72370;BME280;60343;-32.030;115.880;2023-03-18T06:13:57;101861.72;;;30.82;31.08
72370;BME280;60343;-32.030;115.880;2023-03-18T06:16:32;101860.59;;;30.88;31.13
72370;BME280;60343;-32.030;115.880;2023-03-18T06:19:07;101856.66;;;30.94;30.91
72370;BME280;60343;-32.030;115.880;2023-03-18T06:21:48;101849.28;;;30.74;31.11
72370;BME280;60343;-32.030;115.880;2023-03-18T06:24:23;101845.72;;;30.43;31.79
72370;BME280;60343;-32.030;115.880;2023-03-18T06:26:58;101853.75;;;30.45;31.88
72370;BME280;60343;-32.030;115.880;2023-03-18T06:29:32;101855.44;;;30.25;33.06
72370;BME280;60343;-32.030;115.880;2023-03-18T06:32:08;101857.97;;;30.02;33.14
72370;BME280;60343;-32.030;115.880;2023-03-18T06:34:42;101852.94;;;29.89;33.45
72370;BME280;60343;-32.030;115.880;2023-03-18T06:37:22;101849.34;;;29.83;33.84
72370;BME280;60343;-32.030;115.880;2023-03-18T06:39:57;101860.44;;;29.93;34.01
72370;BME280;60343;-32.030;115.880;2023-03-18T06:42:32;101849.09;;;29.79;33.57
72370;BME280;60343;-32.030;115.880;2023-03-18T06:45:08;101849.94;;;30.00;34.21
72370;BME280;60343;-32.030;115.880;2023-03-18T06:47:43;101847.72;;;29.67;33.78
72370;BME280;60343;-32.030;115.880;2023-03-18T06:50:18;101847.69;;;29.52;33.59
72370;BME280;60343;-32.030;115.880;2023-03-18T06:52:58;101845.06;;;29.15;34.69
72370;BME280;60343;-32.030;115.880;2023-03-18T06:55:33;101842.69;;;29.43;33.95
72370;BME280;60343;-32.030;115.880;2023-03-18T06:58:07;101838.75;;;29.24;34.30
72370;BME280;60343;-32.030;115.880;2023-03-18T07:00:44;101842.72;;;29.59;33.73
72370;BME280;60343;-32.030;115.880;2023-03-18T07:03:18;101846.31;;;29.74;32.66
72370;BME280;60343;-32.030;115.880;2023-03-18T07:05:54;101838.56;;;29.46;33.70
72370;BME280;60343;-32.030;115.880;2023-03-18T07:08:35;101841.34;;;29.61;34.16
72370;BME280;60343;-32.030;115.880;2023-03-18T07:11:09;101836.38;;;29.63;34.40
72370;BME280;60343;-32.030;115.880;2023-03-18T07:13:44;101844.13;;;29.76;33.31
72370;BME280;60343;-32.030;115.880;2023-03-18T07:16:19;101834.44;;;29.84;33.44
72370;BME280;60343;-32.030;115.880;2023-03-18T07:18:54;101835.25;;;29.49;34.19
72370;BME280;60343;-32.030;115.880;2023-03-18T07:21:29;101833.78;;;29.21;35.38
72370;BME280;60343;-32.030;115.880;2023-03-18T07:24:09;101836.53;;;29.16;34.97
72370;BME280;60343;-32.030;115.880;2023-03-18T07:26:44;101839.56;;;29.20;34.43
72370;BME280;60343;-32.030;115.880;2023-03-18T07:29:19;101844.47;;;29.08;34.97
72370;BME280;60343;-32.030;115.880;2023-03-18T07:31:53;101847.56;;;29.11;34.90
72370;BME280;60343;-32.030;115.880;2023-03-18T07:34:28;101844.00;;;28.64;35.75
72370;BME280;60343;-32.030;115.880;2023-03-18T07:37:03;101841.91;;;28.39;36.65
72370;BME280;60343;-32.030;115.880;2023-03-18T07:39:43;101844.56;;;27.92;37.75
72370;BME280;60343;-32.030;115.880;2023-03-18T07:42:19;101840.44;;;27.36;39.16
72370;BME280;60343;-32.030;115.880;2023-03-18T07:44:54;101838.38;;;26.99;40.21
72370;BME280;60343;-32.030;115.880;2023-03-18T07:47:28;101842.22;;;26.60;40.78
72370;BME280;60343;-32.030;115.880;2023-03-18T07:50:03;101836.69;;;26.38;41.11
72370;BME280;60343;-32.030;115.880;2023-03-18T07:52:38;101838.41;;;26.11;41.95
72370;BME280;60343;-32.030;115.880;2023-03-18T07:55:18;101835.66;;;26.11;42.49
72370;BME280;60343;-32.030;115.880;2023-03-18T07:57:53;101833.09;;;26.37;41.48
72370;BME280;60343;-32.030;115.880;2023-03-18T08:00:28;101842.78;;;26.23;41.62
72370;BME280;60343;-32.030;115.880;2023-03-18T08:03:02;101846.41;;;26.12;41.88
72370;BME280;60343;-32.030;115.880;2023-03-18T08:05:37;101836.44;;;25.89;42.70
72370;BME280;60343;-32.030;115.880;2023-03-18T08:08:11;101839.09;;;25.84;42.81
72370;BME280;60343;-32.030;115.880;2023-03-18T08:10:55;101837.41;;;25.67;43.08
72370;BME280;60343;-32.030;115.880;2023-03-18T08:13:31;101839.47;;;25.31;43.87
72370;BME280;60343;-32.030;115.880;2023-03-18T08:16:06;101847.16;;;25.46;43.74
72370;BME280;60343;-32.030;115.880;2023-03-18T08:18:40;101836.34;;;25.39;43.10
72370;BME280;60343;-32.030;115.880;2023-03-18T08:21:15;101835.00;;;25.42;43.63
72370;BME280;60343;-32.030;115.880;2023-03-18T08:23:49;101837.78;;;25.30;43.13
72370;BME280;60343;-32.030;115.880;2023-03-18T08:26:30;101843.06;;;25.20;43.10
72370;BME280;60343;-32.030;115.880;2023-03-18T08:29:04;101844.22;;;25.07;43.48
72370;BME280;60343;-32.030;115.880;2023-03-18T08:31:39;101837.06;;;25.06;43.91
72370;BME280;60343;-32.030;115.880;2023-03-18T08:34:13;101836.13;;;25.01;44.22
72370;BME280;60343;-32.030;115.880;2023-03-18T08:36:48;101839.56;;;25.08;43.71
72370;BME280;60343;-32.030;115.880;2023-03-18T08:39:23;101849.13;;;24.94;44.19
72370;BME280;60343;-32.030;115.880;2023-03-18T08:42:03;101845.09;;;24.73;44.16
72370;BME280;60343;-32.030;115.880;2023-03-18T08:44:38;101837.28;;;24.53;44.95
72370;BME280;60343;-32.030;115.880;2023-03-18T08:47:13;101858.09;;;24.43;45.38
72370;BME280;60343;-32.030;115.880;2023-03-18T08:49:47;101855.34;;;24.31;45.69
72370;BME280;60343;-32.030;115.880;2023-03-18T08:52:23;101848.81;;;24.20;46.61
72370;BME280;60343;-32.030;115.880;2023-03-18T08:54:58;101854.78;;;24.29;46.43
72370;BME280;60343;-32.030;115.880;2023-03-18T08:57:39;101848.59;;;24.33;46.55
72370;BME280;60343;-32.030;115.880;2023-03-18T09:00:14;101853.56;;;24.25;46.72
72370;BME280;60343;-32.030;115.880;2023-03-18T09:02:49;101857.16;;;24.37;46.27
72370;BME280;60343;-32.030;115.880;2023-03-18T09:05:24;101863.00;;;24.29;46.17
72370;BME280;60343;-32.030;115.880;2023-03-18T09:07:59;101865.59;;;24.24;46.26
72370;BME280;60343;-32.030;115.880;2023-03-18T09:10:33;101866.06;;;24.21;46.83
72370;BME280;60343;-32.030;115.880;2023-03-18T09:13:13;101864.72;;;24.12;46.70
72370;BME280;60343;-32.030;115.880;2023-03-18T09:15:48;101874.94;;;24.05;46.69
72370;BME280;60343;-32.030;115.880;2023-03-18T09:18:23;101880.38;;;23.81;47.11
72370;BME280;60343;-32.030;115.880;2023-03-18T09:20:57;101871.09;;;23.82;47.60
72370;BME280;60343;-32.030;115.880;2023-03-18T09:23:32;101878.34;;;23.77;47.63
72370;BME280;60343;-32.030;115.880;2023-03-18T09:26:07;101884.03;;;23.75;47.66
72370;BME280;60343;-32.030;115.880;2023-03-18T09:28:47;101886.41;;;23.72;47.68
72370;BME280;60343;-32.030;115.880;2023-03-18T09:31:22;101879.81;;;23.61;47.86
72370;BME280;60343;-32.030;115.880;2023-03-18T09:33:57;101887.19;;;23.61;47.58
72370;BME280;60343;-32.030;115.880;2023-03-18T09:36:32;101886.34;;;23.60;48.06
72370;BME280;60343;-32.030;115.880;2023-03-18T09:39:06;101890.84;;;23.36;48.80
72370;BME280;60343;-32.030;115.880;2023-03-18T09:41:49;101888.81;;;23.32;49.18
72370;BME280;60343;-32.030;115.880;2023-03-18T09:44:33;101882.91;;;23.17;49.40
72370;BME280;60343;-32.030;115.880;2023-03-18T09:47:20;101896.66;;;23.10;49.13
72370;BME280;60343;-32.030;115.880;2023-03-18T09:50:08;101894.31;;;22.95;49.53
72370;BME280;60343;-32.030;115.880;2023-03-18T09:52:51;101900.25;;;22.92;49.79
72370;BME280;60343;-32.030;115.880;2023-03-18T09:55:31;101898.94;;;22.95;48.81
72370;BME280;60343;-32.030;115.880;2023-03-18T09:58:16;101896.94;;;22.84;49.14
72370;BME280;60343;-32.030;115.880;2023-03-18T10:01:01;101904.78;;;22.80;49.64
72370;BME280;60343;-32.030;115.880;2023-03-18T10:03:41;101906.28;;;22.76;50.19
72370;BME280;60343;-32.030;115.880;2023-03-18T10:06:17;101912.66;;;22.63;50.46
72370;BME280;60343;-32.030;115.880;2023-03-18T10:08:59;101916.69;;;22.61;51.07
72370;BME280;60343;-32.030;115.880;2023-03-18T10:11:38;101921.09;;;22.62;50.26
72370;BME280;60343;-32.030;115.880;2023-03-18T10:14:33;101924.56;;;22.51;50.96
72370;BME280;60343;-32.030;115.880;2023-03-18T10:17:22;101924.94;;;22.30;51.53
72370;BME280;60343;-32.030;115.880;2023-03-18T10:20:00;101927.31;;;22.26;51.95
72370;BME280;60343;-32.030;115.880;2023-03-18T10:23:02;101924.63;;;22.19;52.11
72370;BME280;60343;-32.030;115.880;2023-03-18T10:25:44;101926.41;;;22.07;52.63
72370;BME280;60343;-32.030;115.880;2023-03-18T10:28:45;101927.06;;;22.03;53.44
72370;BME280;60343;-32.030;115.880;2023-03-18T10:31:35;101938.84;;;21.90;54.06
72370;BME280;60343;-32.030;115.880;2023-03-18T10:34:21;101937.19;;;21.89;54.43
72370;BME280;60343;-32.030;115.880;2023-03-18T10:37:05;101946.84;;;21.85;54.71
72370;BME280;60343;-32.030;115.880;2023-03-18T10:39:40;101942.97;;;21.68;55.70
72370;BME280;60343;-32.030;115.880;2023-03-18T10:42:20;101944.03;;;21.67;55.91
72370;BME280;60343;-32.030;115.880;2023-03-18T10:45:02;101958.34;;;21.49;56.18
72370;BME280;60343;-32.030;115.880;2023-03-18T10:47:44;101960.03;;;21.50;56.42
72370;BME280;60343;-32.030;115.880;2023-03-18T10:50:31;101960.88;;;21.51;56.74
72370;BME280;60343;-32.030;115.880;2023-03-18T10:53:10;101972.81;;;21.50;57.23
72370;BME280;60343;-32.030;115.880;2023-03-18T10:55:54;101974.13;;;21.40;57.56
72370;BME280;60343;-32.030;115.880;2023-03-18T10:58:32;101971.84;;;21.37;57.65
72370;BME280;60343;-32.030;115.880;2023-03-18T11:01:08;101977.09;;;21.32;57.98
72370;BME280;60343;-32.030;115.880;2023-03-18T11:03:48;101983.16;;;21.34;58.26
72370;BME280;60343;-32.030;115.880;2023-03-18T11:06:39;101986.06;;;21.39;58.44
72370;BME280;60343;-32.030;115.880;2023-03-18T11:09:19;101993.44;;;21.26;58.96
72370;BME280;60343;-32.030;115.880;2023-03-18T11:11:57;101995.97;;;21.27;58.81
72370;BME280;60343;-32.030;115.880;2023-03-18T11:14:37;101992.22;;;21.15;59.73
72370;BME280;60343;-32.030;115.880;2023-03-18T11:17:21;102005.84;;;21.02;60.19
72370;BME280;60343;-32.030;115.880;2023-03-18T11:20:03;102013.38;;;21.00;59.97
72370;BME280;60343;-32.030;115.880;2023-03-18T11:22:45;102006.69;;;20.96;60.58
72370;BME280;60343;-32.030;115.880;2023-03-18T11:25:23;102009.16;;;21.04;59.95
72370;BME280;60343;-32.030;115.880;2023-03-18T11:28:01;102009.59;;;20.94;59.58
72370;BME280;60343;-32.030;115.880;2023-03-18T11:30:45;102010.88;;;20.92;59.56
72370;BME280;60343;-32.030;115.880;2023-03-18T11:33:20;102020.09;;;20.91;59.62
72370;BME280;60343;-32.030;115.880;2023-03-18T11:35:58;102018.81;;;20.93;59.23
72370;BME280;60343;-32.030;115.880;2023-03-18T11:38:39;102026.59;;;20.77;59.87
72370;BME280;60343;-32.030;115.880;2023-03-18T11:41:17;102022.63;;;20.66;60.60
72370;BME280;60343;-32.030;115.880;2023-03-18T11:43:57;102026.56;;;20.64;60.49
72370;BME280;60343;-32.030;115.880;2023-03-18T11:46:34;102034.56;;;20.72;60.22
72370;BME280;60343;-32.030;115.880;2023-03-18T11:49:14;102034.75;;;20.70;60.58
72370;BME280;60343;-32.030;115.880;2023-03-18T11:51:54;102039.97;;;20.52;61.11
72370;BME280;60343;-32.030;115.880;2023-03-18T11:54:47;102044.97;;;20.48;61.05
72370;BME280;60343;-32.030;115.880;2023-03-18T11:57:29;102046.47;;;20.51;61.25
72370;BME280;60343;-32.030;115.880;2023-03-18T12:00:28;102051.88;;;20.44;61.35
72370;BME280;60343;-32.030;115.880;2023-03-18T12:06:19;102056.28;;;20.59;61.41
72370;BME280;60343;-32.030;115.880;2023-03-18T12:09:00;102050.00;;;20.45;61.30
72370;BME280;60343;-32.030;115.880;2023-03-18T12:11:59;102065.69;;;20.43;61.54
72370;BME280;60343;-32.030;115.880;2023-03-18T12:14:41;102071.78;;;20.51;61.34
72370;BME280;60343;-32.030;115.880;2023-03-18T12:17:27;102071.97;;;20.43;61.74
72370;BME280;60343;-32.030;115.880;2023-03-18T12:20:17;102076.56;;;20.36;62.00
72370;BME280;60343;-32.030;115.880;2023-03-18T12:23:03;102074.91;;;20.42;62.03
72370;BME280;60343;-32.030;115.880;2023-03-18T12:25:57;102078.00;;;20.32;62.33
72370;BME280;60343;-32.030;115.880;2023-03-18T12:28:49;102087.66;;;20.35;62.65
72370;BME280;60343;-32.030;115.880;2023-03-18T12:31:36;102083.00;;;20.29;63.13
72370;BME280;60343;-32.030;115.880;2023-03-18T12:34:24;102097.25;;;20.37;62.62
72370;BME280;60343;-32.030;115.880;2023-03-18T12:37:14;102091.59;;;20.32;63.23
72370;BME280;60343;-32.030;115.880;2023-03-18T12:42:59;102104.75;;;20.29;64.06
72370;BME280;60343;-32.030;115.880;2023-03-18T12:45:44;102098.47;;;20.22;64.43
72370;BME280;60343;-32.030;115.880;2023-03-18T12:48:23;102103.88;;;20.15;64.85
72370;BME280;60343;-32.030;115.880;2023-03-18T12:51:02;102094.69;;;20.16;65.00
72370;BME280;60343;-32.030;115.880;2023-03-18T12:53:41;102099.47;;;20.14;65.24
72370;BME280;60343;-32.030;115.880;2023-03-18T12:56:19;102097.13;;;20.04;65.74
72370;BME280;60343;-32.030;115.880;2023-03-18T12:58:56;102098.59;;;20.07;65.50
72370;BME280;60343;-32.030;115.880;2023-03-18T13:01:41;102098.59;;;20.07;66.07
72370;BME280;60343;-32.030;115.880;2023-03-18T13:04:22;102095.66;;;19.95;66.14
72370;BME280;60343;-32.030;115.880;2023-03-18T13:07:05;102098.13;;;19.97;66.38
72370;BME280;60343;-32.030;115.880;2023-03-18T13:09:47;102098.13;;;19.90;66.96
72370;BME280;60343;-32.030;115.880;2023-03-18T13:12:25;102105.22;;;19.85;66.51
72370;BME280;60343;-32.030;115.880;2023-03-18T13:15:01;102110.47;;;19.93;66.97
72370;BME280;60343;-32.030;115.880;2023-03-18T13:17:47;102094.53;;;19.83;67.17
72370;BME280;60343;-32.030;115.880;2023-03-18T13:20:24;102093.44;;;19.78;67.65